sensor_id;sensor_type;location;lat;lon;timestamp;pressure;altitude;pressure_sealevel;temperature;humidity
45541;BME280;31265;49.680;8.608;2023-05-19T00:01:39;101163.59;;;11.62;92.63
45541;BME280;31265;49.680;8.608;2023-05-19T00:04:10;101158.41;;;11.58;92.11
45541;BME280;31265;49.680;8.608;2023-05-19T00:06:43;101157.28;;;11.54;94.41
45541;BME280;31265;49.680;8.608;2023-05-19T00:09:15;101159.81;;;11.44;94.11
45541;BME280;31265;49.680;8.608;2023-05-19T00:11:44;101147.53;;;11.32;95.22
45541;BME280;31265;49.680;8.608;2023-05-19T00:14:13;101157.50;;;11.27;95.93
45541;BME280;31265;49.680;8.608;2023-05-19T00:16:42;101149.34;;;11.22;98.70
45541;BME280;31265;49.680;8.608;2023-05-19T00:19:10;101158.41;;;11.22;97.19
45541;BME280;31265;49.680;8.608;2023-05-19T00:21:39;101154.47;;;11.17;98.02
45541;BME280;31265;49.680;8.608;2023-05-19T00:24:10;101144.69;;;11.16;99.32
45541;BME280;31265;49.680;8.608;2023-05-19T00:26:39;101145.84;;;11.29;96.22
45541;BME280;31265;49.680;8.608;2023-05-19T00:29:07;101147.50;;;11.24;96.54
45541;BME280;31265;49.680;8.608;2023-05-19T00:31:35;101152.06;;;11.43;94.95
45541;BME280;31265;49.680;8.608;2023-05-19T00:34:04;101156.59;;;11.32;97.16
45541;BME280;31265;49.680;8.608;2023-05-19T00:36:32;101154.22;;;11.36;95.10
45541;BME280;31265;49.680;8.608;2023-05-19T00:39:02;101157.91;;;11.31;95.40
45541;BME280;31265;49.680;8.608;2023-05-19T00:41:32;101154.59;;;11.33;94.75
45541;BME280;31265;49.680;8.608;2023-05-19T00:44:00;101156.81;;;11.34;95.08
45541;BME280;31265;49.680;8.608;2023-05-19T00:46:28;101160.84;;;11.26;96.50
45541;BME280;31265;49.680;8.608;2023-05-19T00:48:57;101154.75;;;11.35;95.22
45541;BME280;31265;49.680;8.608;2023-05-19T00:51:27;101152.00;;;11.35;96.61
45541;BME280;31265;49.680;8.608;2023-05-19T00:53:58;101143.78;;;11.22;97.32
45541;BME280;31265;49.680;8.608;2023-05-19T00:56:26;101149.03;;;11.33;95.74
45541;BME280;31265;49.680;8.608;2023-05-19T00:58:57;101148.00;;;11.15;97.29
45541;BME280;31265;49.680;8.608;2023-05-19T01:01:26;101146.72;;;11.16;97.44
45541;BME280;31265;49.680;8.608;2023-05-19T01:03:56;101148.75;;;11.15;97.89
45541;BME280;31265;49.680;8.608;2023-05-19T01:06:25;101138.97;;;11.22;96.49
45541;BME280;31265;49.680;8.608;2023-05-19T01:08:55;101153.41;;;11.21;97.04
45541;BME280;31265;49.680;8.608;2023-05-19T01:11:24;101145.03;;;11.13;97.01
45541;BME280;31265;49.680;8.608;2023-05-19T01:13:55;101143.00;;;11.13;98.81
45541;BME280;31265;49.680;8.608;2023-05-19T01:16:28;101146.88;;;11.10;98.06
45541;BME280;31265;49.680;8.608;2023-05-19T01:19:02;101137.41;;;11.06;98.57
45541;BME280;31265;49.680;8.608;2023-05-19T01:22:05;101134.03;;;11.00;97.91
45541;BME280;31265;49.680;8.608;2023-05-19T01:25:02;101137.34;;;10.98;99.57
45541;BME280;31265;49.680;8.608;2023-05-19T01:27:44;101133.66;;;10.95;98.33
45541;BME280;31265;49.680;8.608;2023-05-19T01:30:29;101132.88;;;10.95;98.63
45541;BME280;31265;49.680;8.608;2023-05-19T01:33:02;101132.97;;;10.82;100.00
45541;BME280;31265;49.680;8.608;2023-05-19T01:35:34;101132.50;;;10.91;98.86
45541;BME280;31265;49.680;8.608;2023-05-19T01:38:07;101126.63;;;11.02;97.81
45541;BME280;31265;49.680;8.608;2023-05-19T01:40:37;101139.84;;;10.81;100.00
45541;BME280;31265;49.680;8.608;2023-05-19T01:43:07;101135.16;;;10.75;100.00
45541;BME280;31265;49.680;8.608;2023-05-19T01:45:38;101133.88;;;10.76;100.00
45541;BME280;31265;49.680;8.608;2023-05-19T01:48:08;101128.31;;;10.76;99.99
45541;BME280;31265;49.680;8.608;2023-05-19T01:50:38;101135.66;;;10.66;100.00
45541;BME280;31265;49.680;8.608;2023-05-19T01:53:06;101139.31;;;10.61;100.00
45541;BME280;31265;49.680;8.608;2023-05-19T01:55:42;101139.31;;;10.61;100.00
45541;BME280;31265;49.680;8.608;2023-05-19T01:58:17;101141.94;;;10.67;100.00
45541;BME280;31265;49.680;8.608;2023-05-19T02:00:53;101141.00;;;10.64;100.00
45541;BME280;31265;49.680;8.608;2023-05-19T02:03:43;101139.69;;;10.65;100.00
45541;BME280;31265;49.680;8.608;2023-05-19T02:06:22;101148.38;;;10.62;100.00
45541;BME280;31265;49.680;8.608;2023-05-19T02:08:57;101149.47;;;10.59;100.00
45541;BME280;31265;49.680;8.608;2023-05-19T02:11:35;101144.81;;;10.53;100.00
45541;BME280;31265;49.680;8.608;2023-05-19T02:14:08;101145.53;;;10.54;100.00
45541;BME280;31265;49.680;8.608;2023-05-19T02:16:44;101152.72;;;10.49;100.00
45541;BME280;31265;49.680;8.608;2023-05-19T02:19:20;101146.44;;;10.49;100.00
45541;BME280;31265;49.680;8.608;2023-05-19T02:21:49;101147.63;;;10.40;100.00
45541;BME280;31265;49.680;8.608;2023-05-19T02:24:18;101151.34;;;10.43;100.00
45541;BME280;31265;49.680;8.608;2023-05-19T02:26:49;101154.13;;;10.43;100.00
45541;BME280;31265;49.680;8.608;2023-05-19T02:29:18;101152.44;;;10.40;100.00
45541;BME280;31265;49.680;8.608;2023-05-19T02:31:50;101156.22;;;10.50;100.00
45541;BME280;31265;49.680;8.608;2023-05-19T02:34:19;101158.34;;;10.36;100.00
45541;BME280;31265;49.680;8.608;2023-05-19T02:36:47;101155.75;;;10.38;100.00
45541;BME280;31265;49.680;8.608;2023-05-19T02:39:16;101148.66;;;10.29;100.00
45541;BME280;31265;49.680;8.608;2023-05-19T02:41:44;101141.41;;;10.26;100.00
45541;BME280;31265;49.680;8.608;2023-05-19T02:44:13;101140.94;;;10.01;100.00
45541;BME280;31265;49.680;8.608;2023-05-19T02:46:41;101149.19;;;9.94;100.00
45541;BME280;31265;49.680;8.608;2023-05-19T02:49:11;101137.06;;;9.83;100.00
45541;BME280;31265;49.680;8.608;2023-05-19T02:51:40;101144.38;;;9.60;100.00
45541;BME280;31265;49.680;8.608;2023-05-19T02:54:08;101135.34;;;9.33;100.00
45541;BME280;31265;49.680;8.608;2023-05-19T02:56:37;101145.25;;;9.28;100.00
45541;BME280;31265;49.680;8.608;2023-05-19T02:59:06;101136.13;;;9.20;100.00
45541;BME280;31265;49.680;8.608;2023-05-19T03:01:36;101141.00;;;9.14;100.00
45541;BME280;31265;49.680;8.608;2023-05-19T03:04:06;101137.59;;;9.08;100.00
45541;BME280;31265;49.680;8.608;2023-05-19T03:06:36;101136.44;;;9.03;100.00
45541;BME280;31265;49.680;8.608;2023-05-19T03:09:05;101140.03;;;8.98;100.00
45541;BME280;31265;49.680;8.608;2023-05-19T03:11:33;101136.19;;;8.88;100.00
45541;BME280;31265;49.680;8.608;2023-05-19T03:14:03;101132.56;;;8.79;100.00
45541;BME280;31265;49.680;8.608;2023-05-19T03:16:31;101133.94;;;8.73;100.00
45541;BME280;31265;49.680;8.608;2023-05-19T03:19:00;101133.50;;;8.69;100.00
45541;BME280;31265;49.680;8.608;2023-05-19T03:21:29;101137.03;;;8.69;100.00
45541;BME280;31265;49.680;8.608;2023-05-19T03:23:59;101147.97;;;8.61;100.00
45541;BME280;31265;49.680;8.608;2023-05-19T03:26:29;101140.81;;;8.53;100.00
45541;BME280;31265;49.680;8.608;2023-05-19T03:28:57;101136.34;;;8.50;100.00
45541;BME280;31265;49.680;8.608;2023-05-19T03:31:26;101142.19;;;8.46;100.00
45541;BME280;31265;49.680;8.608;2023-05-19T03:33:55;101132.16;;;8.43;100.00
45541;BME280;31265;49.680;8.608;2023-05-19T03:36:24;101136.88;;;8.48;100.00
45541;BME280;31265;49.680;8.608;2023-05-19T03:39:00;101144.13;;;8.32;100.00
45541;BME280;31265;49.680;8.608;2023-05-19T03:41:29;101149.41;;;8.17;100.00
45541;BME280;31265;49.680;8.608;2023-05-19T03:43:57;101151.06;;;8.07;100.00
45541;BME280;31265;49.680;8.608;2023-05-19T03:46:26;101152.53;;;8.08;100.00
45541;BME280;31265;49.680;8.608;2023-05-19T03:49:06;101150.09;;;8.04;100.00
45541;BME280;31265;49.680;8.608;2023-05-19T03:51:53;101149.72;;;7.94;100.00
45541;BME280;31265;49.680;8.608;2023-05-19T03:54:32;101153.44;;;7.97;100.00
45541;BME280;31265;49.680;8.608;2023-05-19T03:57:01;101154.31;;;8.24;100.00
45541;BME280;31265;49.680;8.608;2023-05-19T03:59:29;101155.06;;;8.25;100.00
45541;BME280;31265;49.680;8.608;2023-05-19T04:01:59;101151.47;;;8.30;100.00
45541;BME280;31265;49.680;8.608;2023-05-19T04:04:27;101160.59;;;8.25;100.00
45541;BME280;31265;49.680;8.608;2023-05-19T04:06:57;101162.69;;;8.18;100.00
45541;BME280;31265;49.680;8.608;2023-05-19T04:09:25;101164.19;;;8.19;100.00
45541;BME280;31265;49.680;8.608;2023-05-19T04:11:56;101159.72;;;8.16;100.00
45541;BME280;31265;49.680;8.608;2023-05-19T04:14:24;101156.28;;;8.10;100.00
45541;BME280;31265;49.680;8.608;2023-05-19T04:16:52;101164.13;;;8.06;100.00
45541;BME280;31265;49.680;8.608;2023-05-19T04:19:23;101154.34;;;8.05;100.00
45541;BME280;31265;49.680;8.608;2023-05-19T04:21:51;101165.94;;;8.04;100.00
45541;BME280;31265;49.680;8.608;2023-05-19T04:24:20;101161.06;;;8.10;100.00
45541;BME280;31265;49.680;8.608;2023-05-19T04:26:48;101164.34;;;8.08;100.00
45541;BME280;31265;49.680;8.608;2023-05-19T04:29:19;101171.88;;;8.08;100.00
45541;BME280;31265;49.680;8.608;2023-05-19T04:31:50;101166.72;;;8.17;100.00
45541;BME280;31265;49.680;8.608;2023-05-19T04:34:20;101173.13;;;8.26;100.00
45541;BME280;31265;49.680;8.608;2023-05-19T04:36:48;101174.34;;;8.11;100.00
45541;BME280;31265;49.680;8.608;2023-05-19T04:39:21;101170.63;;;8.09;100.00
45541;BME280;31265;49.680;8.608;2023-05-19T04:41:52;101174.34;;;8.11;100.00
45541;BME280;31265;49.680;8.608;2023-05-19T04:44:22;101178.69;;;8.07;100.00
45541;BME280;31265;49.680;8.608;2023-05-19T04:46:51;101175.38;;;8.08;100.00
45541;BME280;31265;49.680;8.608;2023-05-19T04:49:22;101181.66;;;8.28;100.00
45541;BME280;31265;49.680;8.608;2023-05-19T04:51:51;101183.91;;;8.29;100.00
45541;BME280;31265;49.680;8.608;2023-05-19T04:54:25;101186.56;;;8.35;100.00
45541;BME280;31265;49.680;8.608;2023-05-19T04:56:55;101176.94;;;8.42;100.00
45541;BME280;31265;49.680;8.608;2023-05-19T04:59:27;101189.63;;;8.50;100.00
45541;BME280;31265;49.680;8.608;2023-05-19T05:01:56;101180.31;;;8.53;100.00
45541;BME280;31265;49.680;8.608;2023-05-19T05:04:28;101189.91;;;8.66;100.00
45541;BME280;31265;49.680;8.608;2023-05-19T05:06:57;101184.72;;;8.75;100.00
45541;BME280;31265;49.680;8.608;2023-05-19T05:09:27;101186.72;;;8.75;100.00
45541;BME280;31265;49.680;8.608;2023-05-19T05:12:00;101188.03;;;8.87;100.00
45541;BME280;31265;49.680;8.608;2023-05-19T05:14:32;101191.53;;;8.88;100.00
45541;BME280;31265;49.680;8.608;2023-05-19T05:17:01;101190.06;;;8.87;100.00
45541;BME280;31265;49.680;8.608;2023-05-19T05:19:31;101182.94;;;8.91;100.00
45541;BME280;31265;49.680;8.608;2023-05-19T05:22:07;101190.91;;;8.95;100.00
45541;BME280;31265;49.680;8.608;2023-05-19T05:24:40;101192.09;;;8.99;100.00
45541;BME280;31265;49.680;8.608;2023-05-19T05:27:16;101179.97;;;9.16;100.00
45541;BME280;31265;49.680;8.608;2023-05-19T05:29:56;101180.19;;;9.18;100.00
45541;BME280;31265;49.680;8.608;2023-05-19T05:32:26;101177.53;;;9.25;100.00
45541;BME280;31265;49.680;8.608;2023-05-19T05:35:07;101180.94;;;9.45;100.00
45541;BME280;31265;49.680;8.608;2023-05-19T05:37:37;101184.03;;;9.41;100.00
45541;BME280;31265;49.680;8.608;2023-05-19T05:40:09;101185.94;;;9.60;100.00
45541;BME280;31265;49.680;8.608;2023-05-19T05:42:38;101186.34;;;9.77;100.00
45541;BME280;31265;49.680;8.608;2023-05-19T05:45:09;101179.22;;;10.03;100.00
45541;BME280;31265;49.680;8.608;2023-05-19T05:47:38;101183.84;;;10.35;100.00
45541;BME280;31265;49.680;8.608;2023-05-19T05:50:09;101182.88;;;10.53;100.00
45541;BME280;31265;49.680;8.608;2023-05-19T05:52:40;101186.00;;;10.70;100.00
45541;BME280;31265;49.680;8.608;2023-05-19T05:55:09;101188.09;;;10.98;100.00
45541;BME280;31265;49.680;8.608;2023-05-19T05:57:38;101186.44;;;11.32;100.00
45541;BME280;31265;49.680;8.608;2023-05-19T06:00:10;101182.25;;;11.46;100.00
45541;BME280;31265;49.680;8.608;2023-05-19T06:02:44;101185.84;;;11.62;100.00
45541;BME280;31265;49.680;8.608;2023-05-19T06:05:15;101183.28;;;11.72;100.00
45541;BME280;31265;49.680;8.608;2023-05-19T06:07:46;101188.34;;;11.81;100.00
45541;BME280;31265;49.680;8.608;2023-05-19T06:10:29;101182.69;;;12.02;100.00
45541;BME280;31265;49.680;8.608;2023-05-19T06:12:58;101176.97;;;12.08;100.00
45541;BME280;31265;49.680;8.608;2023-05-19T06:15:28;101187.69;;;12.03;100.00
45541;BME280;31265;49.680;8.608;2023-05-19T06:18:05;101187.91;;;12.13;100.00
45541;BME280;31265;49.680;8.608;2023-05-19T06:20:34;101169.78;;;12.35;100.00
45541;BME280;31265;49.680;8.608;2023-05-19T06:23:02;101179.56;;;12.21;100.00
45541;BME280;31265;49.680;8.608;2023-05-19T06:25:32;101185.16;;;12.36;100.00
45541;BME280;31265;49.680;8.608;2023-05-19T06:28:01;101181.50;;;12.57;100.00
45541;BME280;31265;49.680;8.608;2023-05-19T06:30:30;101173.63;;;13.17;100.00
45541;BME280;31265;49.680;8.608;2023-05-19T06:33:19;101174.31;;;13.55;100.00
45541;BME280;31265;49.680;8.608;2023-05-19T06:35:49;101179.22;;;13.80;100.00
45541;BME280;31265;49.680;8.608;2023-05-19T06:38:21;101186.81;;;13.87;100.00
45541;BME280;31265;49.680;8.608;2023-05-19T06:40:50;101190.78;;;14.42;96.80
45541;BME280;31265;49.680;8.608;2023-05-19T06:43:18;101184.56;;;14.59;96.27
45541;BME280;31265;49.680;8.608;2023-05-19T06:45:56;101185.13;;;15.00;94.23
45541;BME280;31265;49.680;8.608;2023-05-19T06:48:25;101189.31;;;15.61;89.30
45541;BME280;31265;49.680;8.608;2023-05-19T06:50:58;101198.72;;;15.73;85.27
45541;BME280;31265;49.680;8.608;2023-05-19T06:53:26;101189.72;;;15.57;84.90
45541;BME280;31265;49.680;8.608;2023-05-19T06:55:55;101189.31;;;15.78;83.71
45541;BME280;31265;49.680;8.608;2023-05-19T06:58:29;101193.66;;;15.89;82.79
45541;BME280;31265;49.680;8.608;2023-05-19T07:01:01;101190.56;;;16.49;81.49
45541;BME280;31265;49.680;8.608;2023-05-19T07:03:35;101181.84;;;16.82;80.66
45541;BME280;31265;49.680;8.608;2023-05-19T07:06:04;101181.19;;;16.73;82.14
45541;BME280;31265;49.680;8.608;2023-05-19T07:08:35;101183.94;;;17.01;82.50
45541;BME280;31265;49.680;8.608;2023-05-19T07:11:07;101180.38;;;16.90;82.49
45541;BME280;31265;49.680;8.608;2023-05-19T07:13:35;101174.22;;;17.31;78.37
45541;BME280;31265;49.680;8.608;2023-05-19T07:16:06;101175.81;;;16.85;79.83
45541;BME280;31265;49.680;8.608;2023-05-19T07:18:34;101167.00;;;17.18;77.58
45541;BME280;31265;49.680;8.608;2023-05-19T07:21:04;101165.47;;;16.88;74.17
45541;BME280;31265;49.680;8.608;2023-05-19T07:23:33;101165.16;;;16.84;75.99
45541;BME280;31265;49.680;8.608;2023-05-19T07:26:02;101161.09;;;17.24;74.37
45541;BME280;31265;49.680;8.608;2023-05-19T07:28:30;101153.09;;;17.69;75.66
45541;BME280;31265;49.680;8.608;2023-05-19T07:31:00;101156.47;;;17.87;75.40
45541;BME280;31265;49.680;8.608;2023-05-19T07:33:29;101147.72;;;17.92;72.27
45541;BME280;31265;49.680;8.608;2023-05-19T07:35:57;101147.03;;;17.82;72.34
45541;BME280;31265;49.680;8.608;2023-05-19T07:38:27;101152.06;;;17.54;76.60
45541;BME280;31265;49.680;8.608;2023-05-19T07:40:55;101139.09;;;17.49;71.18
45541;BME280;31265;49.680;8.608;2023-05-19T07:43:23;101144.13;;;17.51;73.62
45541;BME280;31265;49.680;8.608;2023-05-19T07:45:52;101144.72;;;17.39;72.92
45541;BME280;31265;49.680;8.608;2023-05-19T07:48:23;101147.72;;;17.92;69.34
45541;BME280;31265;49.680;8.608;2023-05-19T07:50:53;101136.03;;;18.05;66.83
45541;BME280;31265;49.680;8.608;2023-05-19T07:53:22;101134.22;;;18.41;64.45
45541;BME280;31265;49.680;8.608;2023-05-19T07:55:50;101129.78;;;18.48;64.48
45541;BME280;31265;49.680;8.608;2023-05-19T07:58:18;101127.34;;;17.92;67.83
45541;BME280;31265;49.680;8.608;2023-05-19T08:00:47;101134.53;;;17.44;68.37
45541;BME280;31265;49.680;8.608;2023-05-19T08:03:15;101129.22;;;18.40;68.82
45541;BME280;31265;49.680;8.608;2023-05-19T08:05:44;101123.84;;;18.75;63.53
45541;BME280;31265;49.680;8.608;2023-05-19T08:08:14;101125.47;;;19.00;64.38
45541;BME280;31265;49.680;8.608;2023-05-19T08:10:43;101128.00;;;18.96;60.27
45541;BME280;31265;49.680;8.608;2023-05-19T08:13:11;101129.44;;;18.85;60.87
45541;BME280;31265;49.680;8.608;2023-05-19T08:15:40;101130.16;;;19.73;61.91
45541;BME280;31265;49.680;8.608;2023-05-19T08:18:08;101129.44;;;19.85;56.80
45541;BME280;31265;49.680;8.608;2023-05-19T08:20:37;101133.59;;;19.84;58.14
45541;BME280;31265;49.680;8.608;2023-05-19T08:23:05;101131.41;;;20.41;56.20
45541;BME280;31265;49.680;8.608;2023-05-19T08:25:35;101130.06;;;20.42;58.85
45541;BME280;31265;49.680;8.608;2023-05-19T08:28:04;101127.56;;;19.66;59.88
45541;BME280;31265;49.680;8.608;2023-05-19T08:30:32;101121.50;;;20.05;57.41
45541;BME280;31265;49.680;8.608;2023-05-19T08:33:01;101125.06;;;20.29;56.19
45541;BME280;31265;49.680;8.608;2023-05-19T08:35:29;101111.22;;;20.21;54.70
45541;BME280;31265;49.680;8.608;2023-05-19T08:37:58;101125.53;;;19.45;54.06
45541;BME280;31265;49.680;8.608;2023-05-19T08:40:28;101121.72;;;19.40;55.81
45541;BME280;31265;49.680;8.608;2023-05-19T08:42:59;101113.78;;;19.48;55.85
45541;BME280;31265;49.680;8.608;2023-05-19T08:45:28;101112.59;;;19.63;55.90
45541;BME280;31265;49.680;8.608;2023-05-19T08:47:57;101109.13;;;19.41;58.50
45541;BME280;31265;49.680;8.608;2023-05-19T08:50:28;101116.38;;;19.56;56.96
45541;BME280;31265;49.680;8.608;2023-05-19T08:53:06;101101.97;;;19.28;55.58
45541;BME280;31265;49.680;8.608;2023-05-19T08:56:00;101106.28;;;19.74;53.88
45541;BME280;31265;49.680;8.608;2023-05-19T08:58:31;101107.25;;;19.67;55.67
45541;BME280;31265;49.680;8.608;2023-05-19T09:01:01;101091.81;;;19.23;53.77
45541;BME280;31265;49.680;8.608;2023-05-19T09:03:31;101100.66;;;19.74;56.79
45541;BME280;31265;49.680;8.608;2023-05-19T09:06:06;101094.81;;;19.94;54.59
45541;BME280;31265;49.680;8.608;2023-05-19T09:08:37;101090.13;;;19.87;54.91
45541;BME280;31265;49.680;8.608;2023-05-19T09:11:08;101089.41;;;20.33;54.84
45541;BME280;31265;49.680;8.608;2023-05-19T09:13:38;101081.44;;;19.83;57.21
45541;BME280;31265;49.680;8.608;2023-05-19T09:16:07;101090.25;;;20.36;57.01
45541;BME280;31265;49.680;8.608;2023-05-19T09:18:37;101087.31;;;20.34;60.70
45541;BME280;31265;49.680;8.608;2023-05-19T09:21:07;101085.22;;;20.34;58.80
45541;BME280;31265;49.680;8.608;2023-05-19T09:23:37;101076.66;;;19.97;61.50
45541;BME280;31265;49.680;8.608;2023-05-19T09:26:06;101075.69;;;20.16;56.40
45541;BME280;31265;49.680;8.608;2023-05-19T09:28:35;101079.97;;;19.70;60.34
45541;BME280;31265;49.680;8.608;2023-05-19T09:31:08;101079.72;;;19.77;63.76
45541;BME280;31265;49.680;8.608;2023-05-19T09:33:37;101069.75;;;19.08;66.24
45541;BME280;31265;49.680;8.608;2023-05-19T09:36:09;101075.81;;;19.83;62.21
45541;BME280;31265;49.680;8.608;2023-05-19T09:38:39;101080.09;;;20.07;61.29
45541;BME280;31265;49.680;8.608;2023-05-19T09:41:08;101071.28;;;20.86;57.69
45541;BME280;31265;49.680;8.608;2023-05-19T09:43:36;101076.25;;;20.61;57.51
45541;BME280;31265;49.680;8.608;2023-05-19T09:46:07;101072.09;;;19.57;64.20
45541;BME280;31265;49.680;8.608;2023-05-19T09:48:40;101083.38;;;20.63;59.68
45541;BME280;31265;49.680;8.608;2023-05-19T09:51:08;101078.63;;;20.18;62.38
45541;BME280;31265;49.680;8.608;2023-05-19T09:53:37;101071.75;;;20.33;62.25
45541;BME280;31265;49.680;8.608;2023-05-19T09:56:07;101068.69;;;20.17;61.90
45541;BME280;31265;49.680;8.608;2023-05-19T09:58:40;101065.63;;;20.25;59.90
45541;BME280;31265;49.680;8.608;2023-05-19T10:01:10;101066.63;;;19.94;60.33
45541;BME280;31265;49.680;8.608;2023-05-19T10:03:39;101055.56;;;19.63;60.23
45541;BME280;31265;49.680;8.608;2023-05-19T10:06:10;101052.41;;;19.23;61.12
45541;BME280;31265;49.680;8.608;2023-05-19T10:08:42;101054.91;;;19.29;65.31
45541;BME280;31265;49.680;8.608;2023-05-19T10:11:11;101057.28;;;19.56;61.52
45541;BME280;31265;49.680;8.608;2023-05-19T10:13:40;101060.00;;;19.77;60.86
45541;BME280;31265;49.680;8.608;2023-05-19T10:16:11;101051.56;;;20.01;59.49
45541;BME280;31265;49.680;8.608;2023-05-19T10:18:42;101053.19;;;19.81;60.02
45541;BME280;31265;49.680;8.608;2023-05-19T10:21:11;101053.41;;;19.96;58.49
45541;BME280;31265;49.680;8.608;2023-05-19T10:23:42;101049.44;;;20.37;58.76
45541;BME280;31265;49.680;8.608;2023-05-19T10:26:10;101045.13;;;20.97;58.31
45541;BME280;31265;49.680;8.608;2023-05-19T10:28:41;101039.28;;;21.32;56.22
45541;BME280;31265;49.680;8.608;2023-05-19T10:31:17;101037.31;;;21.09;54.30
45541;BME280;31265;49.680;8.608;2023-05-19T10:33:59;101040.91;;;21.10;54.61
45541;BME280;31265;49.680;8.608;2023-05-19T10:36:45;101033.31;;;21.00;53.69
45541;BME280;31265;49.680;8.608;2023-05-19T10:39:17;101027.41;;;21.08;52.88
45541;BME280;31265;49.680;8.608;2023-05-19T10:41:55;101022.53;;;21.62;54.36
45541;BME280;31265;49.680;8.608;2023-05-19T10:44:38;101021.19;;;22.18;50.57
45541;BME280;31265;49.680;8.608;2023-05-19T10:47:09;101028.69;;;23.14;51.17
45541;BME280;31265;49.680;8.608;2023-05-19T10:49:39;101006.72;;;23.29;49.61
45541;BME280;31265;49.680;8.608;2023-05-19T10:52:18;101007.38;;;22.10;47.87
45541;BME280;31265;49.680;8.608;2023-05-19T10:54:49;101006.25;;;22.02;49.23
45541;BME280;31265;49.680;8.608;2023-05-19T10:57:24;101017.31;;;22.11;52.61
45541;BME280;31265;49.680;8.608;2023-05-19T10:59:54;101011.34;;;23.06;51.99
45541;BME280;31265;49.680;8.608;2023-05-19T11:02:46;101009.38;;;22.36;49.89
45541;BME280;31265;49.680;8.608;2023-05-19T11:05:27;101002.69;;;21.87;49.18
45541;BME280;31265;49.680;8.608;2023-05-19T11:07:58;101007.53;;;22.56;53.81
45541;BME280;31265;49.680;8.608;2023-05-19T11:10:29;101006.38;;;22.91;48.50
45541;BME280;31265;49.680;8.608;2023-05-19T11:12:58;101011.03;;;22.41;47.43
45541;BME280;31265;49.680;8.608;2023-05-19T11:15:33;101003.63;;;21.78;49.58
45541;BME280;31265;49.680;8.608;2023-05-19T11:18:03;101001.97;;;22.01;49.68
45541;BME280;31265;49.680;8.608;2023-05-19T11:20:31;101004.13;;;22.16;53.98
45541;BME280;31265;49.680;8.608;2023-05-19T11:23:04;100998.09;;;21.66;48.03
45541;BME280;31265;49.680;8.608;2023-05-19T11:25:45;100997.13;;;22.17;50.09
45541;BME280;31265;49.680;8.608;2023-05-19T11:28:15;100989.91;;;22.00;49.19
45541;BME280;31265;49.680;8.608;2023-05-19T11:30:47;100996.81;;;22.11;50.59
45541;BME280;31265;49.680;8.608;2023-05-19T11:33:20;100994.94;;;22.59;51.09
45541;BME280;31265;49.680;8.608;2023-05-19T11:35:54;100992.63;;;22.69;48.29
45541;BME280;31265;49.680;8.608;2023-05-19T11:38:25;101000.47;;;22.27;48.62
45541;BME280;31265;49.680;8.608;2023-05-19T11:40:55;100985.28;;;22.35;46.80
45541;BME280;31265;49.680;8.608;2023-05-19T11:43:23;100977.41;;;21.36;47.46
45541;BME280;31265;49.680;8.608;2023-05-19T11:45:52;100987.28;;;21.10;50.44
45541;BME280;31265;49.680;8.608;2023-05-19T11:48:25;100983.22;;;21.80;51.05
45541;BME280;31265;49.680;8.608;2023-05-19T11:50:53;100995.41;;;22.40;47.44
45541;BME280;31265;49.680;8.608;2023-05-19T11:53:22;100980.94;;;22.77;45.67
45541;BME280;31265;49.680;8.608;2023-05-19T11:55:51;100992.47;;;23.90;44.62
45541;BME280;31265;49.680;8.608;2023-05-19T11:58:24;100990.34;;;23.91;46.51
45541;BME280;31265;49.680;8.608;2023-05-19T12:00:52;100976.28;;;22.98;47.65
45541;BME280;31265;49.680;8.608;2023-05-19T12:03:21;100980.78;;;23.18;47.65
45541;BME280;31265;49.680;8.608;2023-05-19T12:05:56;100978.06;;;22.91;45.32
45541;BME280;31265;49.680;8.608;2023-05-19T12:08:27;100975.66;;;22.69;48.43
45541;BME280;31265;49.680;8.608;2023-05-19T12:10:56;100967.88;;;22.70;50.59
45541;BME280;31265;49.680;8.608;2023-05-19T12:13:25;100977.44;;;22.05;49.54
45541;BME280;31265;49.680;8.608;2023-05-19T12:15:58;100979.78;;;21.81;49.71
45541;BME280;31265;49.680;8.608;2023-05-19T12:18:28;100976.00;;;21.63;50.71
45541;BME280;31265;49.680;8.608;2023-05-19T12:20:59;100972.97;;;21.45;49.95
45541;BME280;31265;49.680;8.608;2023-05-19T12:23:27;100972.66;;;21.53;51.04
45541;BME280;31265;49.680;8.608;2023-05-19T12:25:56;100971.19;;;21.79;53.87
45541;BME280;31265;49.680;8.608;2023-05-19T12:28:28;100981.03;;;22.20;49.63
45541;BME280;31265;49.680;8.608;2023-05-19T12:30:57;100969.00;;;21.78;52.06
45541;BME280;31265;49.680;8.608;2023-05-19T12:33:26;100960.72;;;22.09;48.91
45541;BME280;31265;49.680;8.608;2023-05-19T12:35:54;100970.69;;;21.69;53.15
45541;BME280;31265;49.680;8.608;2023-05-19T12:38:24;100966.59;;;21.05;52.96
45541;BME280;31265;49.680;8.608;2023-05-19T12:40:52;100969.97;;;20.27;54.44
45541;BME280;31265;49.680;8.608;2023-05-19T12:43:25;100961.53;;;20.90;51.98
45541;BME280;31265;49.680;8.608;2023-05-19T12:45:53;100970.94;;;20.69;55.01
45541;BME280;31265;49.680;8.608;2023-05-19T12:48:22;100960.22;;;21.18;52.18
45541;BME280;31265;49.680;8.608;2023-05-19T12:50:50;100956.69;;;21.18;52.41
45541;BME280;31265;49.680;8.608;2023-05-19T12:53:19;100955.41;;;21.46;51.18
45541;BME280;31265;49.680;8.608;2023-05-19T12:55:50;100953.41;;;21.49;51.45
45541;BME280;31265;49.680;8.608;2023-05-19T12:58:19;100951.16;;;21.34;51.88
45541;BME280;31265;49.680;8.608;2023-05-19T13:00:49;100961.19;;;20.83;53.42
45541;BME280;31265;49.680;8.608;2023-05-19T13:03:18;100956.44;;;20.74;53.14
45541;BME280;31265;49.680;8.608;2023-05-19T13:05:49;100958.84;;;20.54;56.46
45541;BME280;31265;49.680;8.608;2023-05-19T13:08:18;100961.13;;;20.95;55.08